sensor_id;sensor_type;location;lat;lon;timestamp;P1;durP1;ratioP1;P2;durP2;ratioP2
8038;SDS011;4062;49.844;8.120;2023-08-08T00:00:16;0.60;;;0.50;;
8038;SDS011;4062;49.844;8.120;2023-08-08T00:02:17;0.50;;;0.50;;
8038;SDS011;4062;49.844;8.120;2023-08-08T00:04:18;0.70;;;0.70;;
8038;SDS011;4062;49.844;8.120;2023-08-08T00:06:20;0.50;;;0.40;;
8038;SDS011;4062;49.844;8.120;2023-08-08T00:08:21;0.77;;;0.40;;
8038;SDS011;4062;49.844;8.120;2023-08-08T00:10:23;0.50;;;0.47;;
8038;SDS011;4062;49.844;8.120;2023-08-08T00:12:24;0.50;;;0.50;;
8038;SDS011;4062;49.844;8.120;2023-08-08T00:14:26;0.50;;;0.40;;
8038;SDS011;4062;49.844;8.120;2023-08-08T00:16:27;0.50;;;0.40;;
8038;SDS011;4062;49.844;8.120;2023-08-08T00:18:28;0.60;;;0.60;;
8038;SDS011;4062;49.844;8.120;2023-08-08T00:20:29;0.50;;;0.30;;
8038;SDS011;4062;49.844;8.120;2023-08-08T00:22:31;0.93;;;0.93;;
8038;SDS011;4062;49.844;8.120;2023-08-08T00:24:33;0.50;;;0.40;;
8038;SDS011;4062;49.844;8.120;2023-08-08T00:26:35;1.03;;;0.50;;
8038;SDS011;4062;49.844;8.120;2023-08-08T00:28:36;1.13;;;1.03;;
8038;SDS011;4062;49.844;8.120;2023-08-08T00:30:38;0.50;;;0.40;;
8038;SDS011;4062;49.844;8.120;2023-08-08T00:32:39;0.50;;;0.37;;
8038;SDS011;4062;49.844;8.120;2023-08-08T00:34:40;0.50;;;0.40;;
8038;SDS011;4062;49.844;8.120;2023-08-08T00:36:42;0.53;;;0.40;;
8038;SDS011;4062;49.844;8.120;2023-08-08T00:38:43;0.53;;;0.40;;
8038;SDS011;4062;49.844;8.120;2023-08-08T00:40:44;0.50;;;0.33;;
8038;SDS011;4062;49.844;8.120;2023-08-08T00:42:46;0.50;;;0.50;;
8038;SDS011;4062;49.844;8.120;2023-08-08T00:44:47;0.50;;;0.50;;
8038;SDS011;4062;49.844;8.120;2023-08-08T00:46:48;0.50;;;0.50;;
8038;SDS011;4062;49.844;8.120;2023-08-08T00:48:53;0.53;;;0.40;;
8038;SDS011;4062;49.844;8.120;2023-08-08T00:50:55;0.50;;;0.40;;
8038;SDS011;4062;49.844;8.120;2023-08-08T00:52:56;0.83;;;0.83;;
8038;SDS011;4062;49.844;8.120;2023-08-08T00:54:58;0.63;;;0.50;;
8038;SDS011;4062;49.844;8.120;2023-08-08T00:57:00;0.70;;;0.40;;
8038;SDS011;4062;49.844;8.120;2023-08-08T00:59:02;0.70;;;0.70;;
8038;SDS011;4062;49.844;8.120;2023-08-08T01:01:04;0.60;;;0.40;;
8038;SDS011;4062;49.844;8.120;2023-08-08T01:03:06;0.60;;;0.50;;
8038;SDS011;4062;49.844;8.120;2023-08-08T01:05:08;0.53;;;0.40;;
8038;SDS011;4062;49.844;8.120;2023-08-08T01:07:13;0.57;;;0.57;;
8038;SDS011;4062;49.844;8.120;2023-08-08T01:09:20;1.20;;;0.67;;
8038;SDS011;4062;49.844;8.120;2023-08-08T01:11:36;0.60;;;0.40;;
8038;SDS011;4062;49.844;8.120;2023-08-08T01:13:38;1.00;;;0.50;;
8038;SDS011;4062;49.844;8.120;2023-08-08T01:15:41;0.50;;;0.30;;
8038;SDS011;4062;49.844;8.120;2023-08-08T01:17:44;0.60;;;0.53;;
8038;SDS011;4062;49.844;8.120;2023-08-08T01:19:47;0.57;;;0.40;;
8038;SDS011;4062;49.844;8.120;2023-08-08T01:21:49;0.50;;;0.40;;
8038;SDS011;4062;49.844;8.120;2023-08-08T01:23:58;0.50;;;0.33;;
8038;SDS011;4062;49.844;8.120;2023-08-08T01:26:13;0.50;;;0.40;;
8038;SDS011;4062;49.844;8.120;2023-08-08T01:28:16;0.50;;;0.43;;
8038;SDS011;4062;49.844;8.120;2023-08-08T01:30:22;0.50;;;0.40;;
8038;SDS011;4062;49.844;8.120;2023-08-08T01:32:24;0.50;;;0.43;;
8038;SDS011;4062;49.844;8.120;2023-08-08T01:34:25;0.63;;;0.47;;
8038;SDS011;4062;49.844;8.120;2023-08-08T01:36:30;0.77;;;0.50;;
8038;SDS011;4062;49.844;8.120;2023-08-08T01:41:00;0.50;;;0.40;;
8038;SDS011;4062;49.844;8.120;2023-08-08T01:43:05;0.50;;;0.30;;
8038;SDS011;4062;49.844;8.120;2023-08-08T01:45:07;0.50;;;0.40;;
8038;SDS011;4062;49.844;8.120;2023-08-08T01:47:09;0.90;;;0.60;;
8038;SDS011;4062;49.844;8.120;2023-08-08T01:49:10;0.60;;;0.60;;
8038;SDS011;4062;49.844;8.120;2023-08-08T01:51:12;0.50;;;0.40;;
8038;SDS011;4062;49.844;8.120;2023-08-08T01:53:13;0.83;;;0.80;;
8038;SDS011;4062;49.844;8.120;2023-08-08T01:55:14;0.80;;;0.60;;
8038;SDS011;4062;49.844;8.120;2023-08-08T01:57:17;0.50;;;0.50;;
8038;SDS011;4062;49.844;8.120;2023-08-08T01:59:18;0.80;;;0.77;;
8038;SDS011;4062;49.844;8.120;2023-08-08T02:01:20;0.60;;;0.50;;
8038;SDS011;4062;49.844;8.120;2023-08-08T02:03:21;0.50;;;0.50;;
8038;SDS011;4062;49.844;8.120;2023-08-08T02:05:22;0.60;;;0.37;;
8038;SDS011;4062;49.844;8.120;2023-08-08T02:07:24;0.47;;;0.30;;
8038;SDS011;4062;49.844;8.120;2023-08-08T02:09:25;0.57;;;0.50;;
8038;SDS011;4062;49.844;8.120;2023-08-08T02:11:27;0.50;;;0.50;;
8038;SDS011;4062;49.844;8.120;2023-08-08T02:13:29;0.57;;;0.50;;
8038;SDS011;4062;49.844;8.120;2023-08-08T02:15:30;0.50;;;0.40;;
8038;SDS011;4062;49.844;8.120;2023-08-08T02:17:32;0.50;;;0.30;;
8038;SDS011;4062;49.844;8.120;2023-08-08T02:19:33;0.50;;;0.40;;
8038;SDS011;4062;49.844;8.120;2023-08-08T02:21:35;0.50;;;0.50;;
8038;SDS011;4062;49.844;8.120;2023-08-08T02:23:36;0.60;;;0.50;;
8038;SDS011;4062;49.844;8.120;2023-08-08T02:25:37;0.70;;;0.40;;
8038;SDS011;4062;49.844;8.120;2023-08-08T02:29:44;0.40;;;0.40;;
8038;SDS011;4062;49.844;8.120;2023-08-08T02:31:45;1.27;;;0.70;;
8038;SDS011;4062;49.844;8.120;2023-08-08T02:33:49;0.50;;;0.43;;
8038;SDS011;4062;49.844;8.120;2023-08-08T02:35:51;0.40;;;0.40;;
8038;SDS011;4062;49.844;8.120;2023-08-08T02:37:53;0.50;;;0.40;;
8038;SDS011;4062;49.844;8.120;2023-08-08T02:39:54;0.60;;;0.53;;
8038;SDS011;4062;49.844;8.120;2023-08-08T02:41:55;0.50;;;0.40;;
8038;SDS011;4062;49.844;8.120;2023-08-08T02:43:57;0.70;;;0.40;;
8038;SDS011;4062;49.844;8.120;2023-08-08T02:46:00;0.80;;;0.77;;
8038;SDS011;4062;49.844;8.120;2023-08-08T02:48:01;0.50;;;0.30;;
8038;SDS011;4062;49.844;8.120;2023-08-08T02:50:03;0.70;;;0.30;;
8038;SDS011;4062;49.844;8.120;2023-08-08T02:52:05;0.60;;;0.60;;
8038;SDS011;4062;49.844;8.120;2023-08-08T02:54:09;1.10;;;0.50;;
8038;SDS011;4062;49.844;8.120;2023-08-08T02:56:12;0.63;;;0.63;;
8038;SDS011;4062;49.844;8.120;2023-08-08T02:58:16;0.50;;;0.40;;
8038;SDS011;4062;49.844;8.120;2023-08-08T03:00:18;0.53;;;0.53;;
8038;SDS011;4062;49.844;8.120;2023-08-08T03:02:23;0.50;;;0.40;;
8038;SDS011;4062;49.844;8.120;2023-08-08T03:04:25;0.50;;;0.50;;
8038;SDS011;4062;49.844;8.120;2023-08-08T03:06:27;0.70;;;0.70;;
8038;SDS011;4062;49.844;8.120;2023-08-08T03:08:29;0.60;;;0.40;;
8038;SDS011;4062;49.844;8.120;2023-08-08T03:10:31;0.70;;;0.70;;
8038;SDS011;4062;49.844;8.120;2023-08-08T03:12:33;0.50;;;0.50;;
8038;SDS011;4062;49.844;8.120;2023-08-08T03:14:35;0.60;;;0.40;;
8038;SDS011;4062;49.844;8.120;2023-08-08T03:16:37;0.90;;;0.57;;
8038;SDS011;4062;49.844;8.120;2023-08-08T03:18:41;0.50;;;0.50;;
8038;SDS011;4062;49.844;8.120;2023-08-08T03:20:42;0.50;;;0.40;;
8038;SDS011;4062;49.844;8.120;2023-08-08T03:22:43;0.90;;;0.60;;
8038;SDS011;4062;49.844;8.120;2023-08-08T03:24:46;0.50;;;0.40;;
8038;SDS011;4062;49.844;8.120;2023-08-08T03:26:47;0.60;;;0.40;;
8038;SDS011;4062;49.844;8.120;2023-08-08T03:28:49;0.50;;;0.40;;
8038;SDS011;4062;49.844;8.120;2023-08-08T03:30:56;0.60;;;0.40;;
8038;SDS011;4062;49.844;8.120;2023-08-08T03:32:57;0.50;;;0.40;;
8038;SDS011;4062;49.844;8.120;2023-08-08T03:34:59;0.53;;;0.53;;
8038;SDS011;4062;49.844;8.120;2023-08-08T03:37:00;0.50;;;0.37;;
8038;SDS011;4062;49.844;8.120;2023-08-08T03:39:02;0.50;;;0.40;;
8038;SDS011;4062;49.844;8.120;2023-08-08T03:41:05;0.50;;;0.40;;
8038;SDS011;4062;49.844;8.120;2023-08-08T03:43:06;0.50;;;0.47;;
8038;SDS011;4062;49.844;8.120;2023-08-08T03:45:08;0.50;;;0.40;;
8038;SDS011;4062;49.844;8.120;2023-08-08T03:47:13;0.50;;;0.40;;
8038;SDS011;4062;49.844;8.120;2023-08-08T03:49:15;0.83;;;0.63;;
8038;SDS011;4062;49.844;8.120;2023-08-08T03:51:16;0.60;;;0.50;;
8038;SDS011;4062;49.844;8.120;2023-08-08T03:53:18;1.03;;;0.40;;
8038;SDS011;4062;49.844;8.120;2023-08-08T03:55:19;0.60;;;0.50;;
8038;SDS011;4062;49.844;8.120;2023-08-08T03:57:21;0.60;;;0.50;;
8038;SDS011;4062;49.844;8.120;2023-08-08T03:59:22;0.77;;;0.77;;
8038;SDS011;4062;49.844;8.120;2023-08-08T04:01:23;0.50;;;0.50;;
8038;SDS011;4062;49.844;8.120;2023-08-08T04:03:25;0.70;;;0.63;;
8038;SDS011;4062;49.844;8.120;2023-08-08T04:05:26;0.50;;;0.40;;
8038;SDS011;4062;49.844;8.120;2023-08-08T04:07:27;0.50;;;0.30;;
8038;SDS011;4062;49.844;8.120;2023-08-08T04:09:29;0.60;;;0.40;;
8038;SDS011;4062;49.844;8.120;2023-08-08T04:11:30;0.50;;;0.40;;
8038;SDS011;4062;49.844;8.120;2023-08-08T04:13:31;0.70;;;0.63;;
8038;SDS011;4062;49.844;8.120;2023-08-08T04:15:33;0.53;;;0.50;;
8038;SDS011;4062;49.844;8.120;2023-08-08T04:17:34;0.50;;;0.40;;
8038;SDS011;4062;49.844;8.120;2023-08-08T04:19:36;0.50;;;0.40;;
8038;SDS011;4062;49.844;8.120;2023-08-08T04:23:39;0.60;;;0.50;;
8038;SDS011;4062;49.844;8.120;2023-08-08T04:25:41;0.50;;;0.40;;
8038;SDS011;4062;49.844;8.120;2023-08-08T04:27:42;0.67;;;0.67;;
8038;SDS011;4062;49.844;8.120;2023-08-08T04:29:43;0.50;;;0.40;;
8038;SDS011;4062;49.844;8.120;2023-08-08T04:31:44;0.50;;;0.40;;
8038;SDS011;4062;49.844;8.120;2023-08-08T04:33:46;0.50;;;0.40;;
8038;SDS011;4062;49.844;8.120;2023-08-08T04:35:47;0.60;;;0.50;;
8038;SDS011;4062;49.844;8.120;2023-08-08T04:37:49;0.50;;;0.47;;
8038;SDS011;4062;49.844;8.120;2023-08-08T04:39:50;0.50;;;0.50;;
8038;SDS011;4062;49.844;8.120;2023-08-08T04:41:52;0.50;;;0.50;;
8038;SDS011;4062;49.844;8.120;2023-08-08T04:43:53;0.50;;;0.43;;
8038;SDS011;4062;49.844;8.120;2023-08-08T04:45:55;0.50;;;0.47;;
8038;SDS011;4062;49.844;8.120;2023-08-08T04:47:56;0.60;;;0.50;;
8038;SDS011;4062;49.844;8.120;2023-08-08T04:49:58;1.27;;;0.60;;
8038;SDS011;4062;49.844;8.120;2023-08-08T04:51:59;0.70;;;0.43;;
8038;SDS011;4062;49.844;8.120;2023-08-08T04:54:01;0.60;;;0.40;;
8038;SDS011;4062;49.844;8.120;2023-08-08T04:56:02;0.50;;;0.30;;
8038;SDS011;4062;49.844;8.120;2023-08-08T04:58:04;0.40;;;0.30;;
8038;SDS011;4062;49.844;8.120;2023-08-08T05:00:05;0.53;;;0.40;;
8038;SDS011;4062;49.844;8.120;2023-08-08T05:02:08;0.50;;;0.40;;
8038;SDS011;4062;49.844;8.120;2023-08-08T05:04:10;0.50;;;0.37;;
8038;SDS011;4062;49.844;8.120;2023-08-08T05:06:11;0.50;;;0.40;;
8038;SDS011;4062;49.844;8.120;2023-08-08T05:08:13;0.50;;;0.47;;
8038;SDS011;4062;49.844;8.120;2023-08-08T05:10:14;0.50;;;0.30;;
8038;SDS011;4062;49.844;8.120;2023-08-08T05:12:16;0.50;;;0.50;;
8038;SDS011;4062;49.844;8.120;2023-08-08T05:14:17;0.70;;;0.50;;
8038;SDS011;4062;49.844;8.120;2023-08-08T05:16:18;0.50;;;0.40;;
8038;SDS011;4062;49.844;8.120;2023-08-08T05:18:20;0.60;;;0.30;;
8038;SDS011;4062;49.844;8.120;2023-08-08T05:20:21;0.50;;;0.40;;
8038;SDS011;4062;49.844;8.120;2023-08-08T05:22:23;0.57;;;0.43;;
8038;SDS011;4062;49.844;8.120;2023-08-08T05:24:24;0.50;;;0.43;;
8038;SDS011;4062;49.844;8.120;2023-08-08T05:26:26;0.60;;;0.40;;
8038;SDS011;4062;49.844;8.120;2023-08-08T05:28:27;0.70;;;0.50;;
8038;SDS011;4062;49.844;8.120;2023-08-08T05:30:28;0.43;;;0.33;;
8038;SDS011;4062;49.844;8.120;2023-08-08T05:32:30;0.50;;;0.50;;
8038;SDS011;4062;49.844;8.120;2023-08-08T05:34:31;0.50;;;0.40;;
8038;SDS011;4062;49.844;8.120;2023-08-08T05:36:33;0.60;;;0.60;;
8038;SDS011;4062;49.844;8.120;2023-08-08T05:38:34;0.60;;;0.50;;
8038;SDS011;4062;49.844;8.120;2023-08-08T05:40:36;0.63;;;0.50;;
8038;SDS011;4062;49.844;8.120;2023-08-08T05:42:38;0.50;;;0.40;;
8038;SDS011;4062;49.844;8.120;2023-08-08T05:44:40;0.50;;;0.47;;
8038;SDS011;4062;49.844;8.120;2023-08-08T05:46:45;0.50;;;0.40;;
8038;SDS011;4062;49.844;8.120;2023-08-08T05:48:46;0.60;;;0.50;;
8038;SDS011;4062;49.844;8.120;2023-08-08T05:50:48;0.90;;;0.40;;
8038;SDS011;4062;49.844;8.120;2023-08-08T05:52:49;0.80;;;0.50;;
8038;SDS011;4062;49.844;8.120;2023-08-08T05:54:50;0.50;;;0.40;;
8038;SDS011;4062;49.844;8.120;2023-08-08T05:56:52;0.60;;;0.50;;
8038;SDS011;4062;49.844;8.120;2023-08-08T05:58:54;0.50;;;0.40;;
8038;SDS011;4062;49.844;8.120;2023-08-08T06:00:56;0.80;;;0.57;;
8038;SDS011;4062;49.844;8.120;2023-08-08T06:02:57;0.60;;;0.60;;
8038;SDS011;4062;49.844;8.120;2023-08-08T06:05:02;0.40;;;0.40;;
8038;SDS011;4062;49.844;8.120;2023-08-08T06:07:04;0.57;;;0.40;;
8038;SDS011;4062;49.844;8.120;2023-08-08T06:09:08;0.50;;;0.40;;
8038;SDS011;4062;49.844;8.120;2023-08-08T06:11:10;0.50;;;0.40;;
8038;SDS011;4062;49.844;8.120;2023-08-08T06:13:11;0.50;;;0.50;;
8038;SDS011;4062;49.844;8.120;2023-08-08T06:15:12;0.47;;;0.40;;
8038;SDS011;4062;49.844;8.120;2023-08-08T06:17:14;0.60;;;0.50;;
8038;SDS011;4062;49.844;8.120;2023-08-08T06:19:15;0.50;;;0.40;;
8038;SDS011;4062;49.844;8.120;2023-08-08T06:21:17;0.73;;;0.50;;
8038;SDS011;4062;49.844;8.120;2023-08-08T06:23:18;0.40;;;0.33;;
8038;SDS011;4062;49.844;8.120;2023-08-08T06:25:19;0.60;;;0.50;;
8038;SDS011;4062;49.844;8.120;2023-08-08T06:27:21;0.40;;;0.30;;
8038;SDS011;4062;49.844;8.120;2023-08-08T06:29:22;0.50;;;0.40;;
8038;SDS011;4062;49.844;8.120;2023-08-08T06:31:24;0.50;;;0.43;;
8038;SDS011;4062;49.844;8.120;2023-08-08T06:33:26;0.63;;;0.63;;
8038;SDS011;4062;49.844;8.120;2023-08-08T06:35:28;0.50;;;0.40;;
8038;SDS011;4062;49.844;8.120;2023-08-08T06:37:29;0.40;;;0.30;;
8038;SDS011;4062;49.844;8.120;2023-08-08T06:39:31;0.40;;;0.30;;
8038;SDS011;4062;49.844;8.120;2023-08-08T06:41:51;0.50;;;0.40;;
8038;SDS011;4062;49.844;8.120;2023-08-08T06:44:23;0.50;;;0.50;;
8038;SDS011;4062;49.844;8.120;2023-08-08T06:46:30;0.60;;;0.40;;
8038;SDS011;4062;49.844;8.120;2023-08-08T06:48:32;0.60;;;0.60;;
8038;SDS011;4062;49.844;8.120;2023-08-08T06:50:33;0.70;;;0.50;;
8038;SDS011;4062;49.844;8.120;2023-08-08T06:52:35;0.60;;;0.40;;
8038;SDS011;4062;49.844;8.120;2023-08-08T06:54:36;0.50;;;0.47;;
8038;SDS011;4062;49.844;8.120;2023-08-08T06:56:37;0.50;;;0.30;;
8038;SDS011;4062;49.844;8.120;2023-08-08T06:58:39;0.50;;;0.43;;
8038;SDS011;4062;49.844;8.120;2023-08-08T07:00:40;0.60;;;0.40;;
8038;SDS011;4062;49.844;8.120;2023-08-08T07:02:42;0.47;;;0.37;;
8038;SDS011;4062;49.844;8.120;2023-08-08T07:04:43;0.50;;;0.40;;
8038;SDS011;4062;49.844;8.120;2023-08-08T07:06:44;0.50;;;0.40;;
8038;SDS011;4062;49.844;8.120;2023-08-08T07:08:46;0.50;;;0.40;;
8038;SDS011;4062;49.844;8.120;2023-08-08T07:10:47;0.40;;;0.30;;
8038;SDS011;4062;49.844;8.120;2023-08-08T07:12:48;0.50;;;0.40;;
8038;SDS011;4062;49.844;8.120;2023-08-08T07:14:50;0.50;;;0.40;;
8038;SDS011;4062;49.844;8.120;2023-08-08T07:16:51;0.60;;;0.53;;
8038;SDS011;4062;49.844;8.120;2023-08-08T07:18:53;0.40;;;0.30;;
8038;SDS011;4062;49.844;8.120;2023-08-08T07:20:55;0.57;;;0.50;;
8038;SDS011;4062;49.844;8.120;2023-08-08T07:22:56;0.50;;;0.40;;
8038;SDS011;4062;49.844;8.120;2023-08-08T07:25:00;0.50;;;0.30;;
8038;SDS011;4062;49.844;8.120;2023-08-08T07:27:01;0.40;;;0.30;;
8038;SDS011;4062;49.844;8.120;2023-08-08T07:29:02;0.93;;;0.40;;
8038;SDS011;4062;49.844;8.120;2023-08-08T07:31:06;0.80;;;0.50;;
8038;SDS011;4062;49.844;8.120;2023-08-08T07:33:07;0.40;;;0.30;;
8038;SDS011;4062;49.844;8.120;2023-08-08T07:35:09;0.50;;;0.40;;
8038;SDS011;4062;49.844;8.120;2023-08-08T07:37:11;0.50;;;0.30;;
8038;SDS011;4062;49.844;8.120;2023-08-08T07:39:14;0.50;;;0.40;;
8038;SDS011;4062;49.844;8.120;2023-08-08T07:41:15;0.50;;;0.30;;
8038;SDS011;4062;49.844;8.120;2023-08-08T07:43:18;0.50;;;0.40;;
8038;SDS011;4062;49.844;8.120;2023-08-08T07:45:20;0.50;;;0.40;;
8038;SDS011;4062;49.844;8.120;2023-08-08T07:47:22;0.80;;;0.40;;
8038;SDS011;4062;49.844;8.120;2023-08-08T07:49:23;0.47;;;0.37;;
8038;SDS011;4062;49.844;8.120;2023-08-08T07:51:28;0.70;;;0.40;;
8038;SDS011;4062;49.844;8.120;2023-08-08T07:53:30;0.40;;;0.30;;
8038;SDS011;4062;49.844;8.120;2023-08-08T07:55:31;0.40;;;0.30;;
8038;SDS011;4062;49.844;8.120;2023-08-08T07:57:33;0.50;;;0.30;;
8038;SDS011;4062;49.844;8.120;2023-08-08T07:59:35;0.50;;;0.40;;
8038;SDS011;4062;49.844;8.120;2023-08-08T08:01:36;0.50;;;0.40;;
8038;SDS011;4062;49.844;8.120;2023-08-08T08:03:38;0.50;;;0.33;;
8038;SDS011;4062;49.844;8.120;2023-08-08T08:05:40;0.50;;;0.40;;
8038;SDS011;4062;49.844;8.120;2023-08-08T08:07:41;0.50;;;0.40;;
8038;SDS011;4062;49.844;8.120;2023-08-08T08:09:43;0.50;;;0.40;;
8038;SDS011;4062;49.844;8.120;2023-08-08T08:11:45;0.40;;;0.30;;
8038;SDS011;4062;49.844;8.120;2023-08-08T08:13:46;0.50;;;0.40;;
8038;SDS011;4062;49.844;8.120;2023-08-08T08:15:48;0.60;;;0.60;;
8038;SDS011;4062;49.844;8.120;2023-08-08T08:17:49;0.40;;;0.40;;
8038;SDS011;4062;49.844;8.120;2023-08-08T08:19:51;0.50;;;0.40;;
8038;SDS011;4062;49.844;8.120;2023-08-08T08:21:52;0.50;;;0.50;;
8038;SDS011;4062;49.844;8.120;2023-08-08T08:23:54;0.50;;;0.30;;
8038;SDS011;4062;49.844;8.120;2023-08-08T08:25:58;0.50;;;0.30;;
8038;SDS011;4062;49.844;8.120;2023-08-08T08:28:00;0.40;;;0.40;;
8038;SDS011;4062;49.844;8.120;2023-08-08T08:30:02;0.50;;;0.30;;
8038;SDS011;4062;49.844;8.120;2023-08-08T08:32:04;0.50;;;0.40;;
8038;SDS011;4062;49.844;8.120;2023-08-08T08:34:10;0.50;;;0.37;;
8038;SDS011;4062;49.844;8.120;2023-08-08T08:36:12;0.50;;;0.30;;
8038;SDS011;4062;49.844;8.120;2023-08-08T08:38:14;0.50;;;0.40;;
8038;SDS011;4062;49.844;8.120;2023-08-08T08:40:15;0.50;;;0.30;;
8038;SDS011;4062;49.844;8.120;2023-08-08T08:42:16;0.40;;;0.30;;
8038;SDS011;4062;49.844;8.120;2023-08-08T08:44:18;0.40;;;0.30;;
8038;SDS011;4062;49.844;8.120;2023-08-08T08:46:23;0.60;;;0.40;;
8038;SDS011;4062;49.844;8.120;2023-08-08T08:48:27;0.50;;;0.30;;
8038;SDS011;4062;49.844;8.120;2023-08-08T08:50:29;0.50;;;0.40;;
8038;SDS011;4062;49.844;8.120;2023-08-08T08:52:33;0.60;;;0.30;;
8038;SDS011;4062;49.844;8.120;2023-08-08T08:54:35;0.50;;;0.30;;
8038;SDS011;4062;49.844;8.120;2023-08-08T08:56:37;0.50;;;0.50;;
8038;SDS011;4062;49.844;8.120;2023-08-08T08:58:39;0.50;;;0.40;;
8038;SDS011;4062;49.844;8.120;2023-08-08T09:00:41;0.50;;;0.40;;
8038;SDS011;4062;49.844;8.120;2023-08-08T09:02:49;0.50;;;0.30;;
8038;SDS011;4062;49.844;8.120;2023-08-08T09:04:51;0.50;;;0.30;;
8038;SDS011;4062;49.844;8.120;2023-08-08T09:06:54;0.50;;;0.40;;
8038;SDS011;4062;49.844;8.120;2023-08-08T09:08:55;0.40;;;0.30;;
8038;SDS011;4062;49.844;8.120;2023-08-08T09:10:57;0.40;;;0.30;;
8038;SDS011;4062;49.844;8.120;2023-08-08T09:12:58;0.60;;;0.60;;
8038;SDS011;4062;49.844;8.120;2023-08-08T09:15:01;0.50;;;0.40;;
8038;SDS011;4062;49.844;8.120;2023-08-08T09:17:09;0.40;;;0.30;;
8038;SDS011;4062;49.844;8.120;2023-08-08T09:19:13;0.47;;;0.30;;
8038;SDS011;4062;49.844;8.120;2023-08-08T09:21:15;0.50;;;0.30;;
8038;SDS011;4062;49.844;8.120;2023-08-08T09:23:16;0.50;;;0.40;;
8038;SDS011;4062;49.844;8.120;2023-08-08T09:25:18;0.50;;;0.30;;
8038;SDS011;4062;49.844;8.120;2023-08-08T09:27:22;0.50;;;0.50;;
8038;SDS011;4062;49.844;8.120;2023-08-08T09:29:23;0.60;;;0.40;;
8038;SDS011;4062;49.844;8.120;2023-08-08T09:31:25;0.50;;;0.47;;
8038;SDS011;4062;49.844;8.120;2023-08-08T09:33:30;0.50;;;0.30;;
8038;SDS011;4062;49.844;8.120;2023-08-08T09:35:31;0.50;;;0.40;;
8038;SDS011;4062;49.844;8.120;2023-08-08T09:37:38;0.50;;;0.40;;
8038;SDS011;4062;49.844;8.120;2023-08-08T09:39:40;0.50;;;0.30;;
8038;SDS011;4062;49.844;8.120;2023-08-08T09:41:42;0.50;;;0.37;;
8038;SDS011;4062;49.844;8.120;2023-08-08T09:43:45;0.60;;;0.50;;
8038;SDS011;4062;49.844;8.120;2023-08-08T09:45:48;0.67;;;0.40;;
8038;SDS011;4062;49.844;8.120;2023-08-08T09:47:50;0.50;;;0.30;;
8038;SDS011;4062;49.844;8.120;2023-08-08T09:49:54;0.50;;;0.30;;
8038;SDS011;4062;49.844;8.120;2023-08-08T09:51:57;1.63;;;0.40;;
8038;SDS011;4062;49.844;8.120;2023-08-08T09:53:59;0.50;;;0.40;;
8038;SDS011;4062;49.844;8.120;2023-08-08T09:56:02;0.50;;;0.40;;
8038;SDS011;4062;49.844;8.120;2023-08-08T09:58:04;0.50;;;0.30;;
8038;SDS011;4062;49.844;8.120;2023-08-08T10:00:08;0.40;;;0.30;;
8038;SDS011;4062;49.844;8.120;2023-08-08T10:02:16;0.50;;;0.40;;
8038;SDS011;4062;49.844;8.120;2023-08-08T10:04:18;0.53;;;0.47;;
8038;SDS011;4062;49.844;8.120;2023-08-08T10:06:19;0.50;;;0.50;;
8038;SDS011;4062;49.844;8.120;2023-08-08T10:08:20;0.50;;;0.30;;
8038;SDS011;4062;49.844;8.120;2023-08-08T10:10:22;0.50;;;0.40;;
8038;SDS011;4062;49.844;8.120;2023-08-08T10:12:24;0.50;;;0.30;;
8038;SDS011;4062;49.844;8.120;2023-08-08T10:14:30;0.50;;;0.30;;
8038;SDS011;4062;49.844;8.120;2023-08-08T10:16:33;0.50;;;0.37;;
8038;SDS011;4062;49.844;8.120;2023-08-08T10:18:34;0.40;;;0.30;;
8038;SDS011;4062;49.844;8.120;2023-08-08T10:20:36;0.80;;;0.40;;
8038;SDS011;4062;49.844;8.120;2023-08-08T10:22:41;1.97;;;0.40;;
8038;SDS011;4062;49.844;8.120;2023-08-08T10:24:46;0.50;;;0.30;;
8038;SDS011;4062;49.844;8.120;2023-08-08T10:29:00;0.50;;;0.40;;
8038;SDS011;4062;49.844;8.120;2023-08-08T10:31:01;0.60;;;0.40;;
8038;SDS011;4062;49.844;8.120;2023-08-08T10:33:04;0.60;;;0.50;;
8038;SDS011;4062;49.844;8.120;2023-08-08T10:35:06;0.70;;;0.60;;
8038;SDS011;4062;49.844;8.120;2023-08-08T10:37:13;0.90;;;0.60;;
8038;SDS011;4062;49.844;8.120;2023-08-08T10:39:17;1.23;;;0.50;;
8038;SDS011;4062;49.844;8.120;2023-08-08T10:41:20;1.47;;;0.40;;
8038;SDS011;4062;49.844;8.120;2023-08-08T10:43:28;0.50;;;0.40;;
8038;SDS011;4062;49.844;8.120;2023-08-08T10:45:31;0.50;;;0.50;;
8038;SDS011;4062;49.844;8.120;2023-08-08T10:47:35;0.80;;;0.43;;
8038;SDS011;4062;49.844;8.120;2023-08-08T10:49:37;0.63;;;0.57;;
8038;SDS011;4062;49.844;8.120;2023-08-08T10:51:40;0.77;;;0.77;;
8038;SDS011;4062;49.844;8.120;2023-08-08T10:53:44;0.73;;;0.73;;
8038;SDS011;4062;49.844;8.120;2023-08-08T10:55:46;1.00;;;1.00;;
8038;SDS011;4062;49.844;8.120;2023-08-08T10:57:56;2.80;;;0.80;;
8038;SDS011;4062;49.844;8.120;2023-08-08T11:00:21;1.03;;;0.97;;
8038;SDS011;4062;49.844;8.120;2023-08-08T11:02:23;0.60;;;0.50;;
8038;SDS011;4062;49.844;8.120;2023-08-08T11:04:24;0.53;;;0.53;;
8038;SDS011;4062;49.844;8.120;2023-08-08T11:06:26;0.83;;;0.50;;
8038;SDS011;4062;49.844;8.120;2023-08-08T11:08:29;0.70;;;0.50;;
8038;SDS011;4062;49.844;8.120;2023-08-08T11:10:35;0.50;;;0.50;;
8038;SDS011;4062;49.844;8.120;2023-08-08T11:12:52;1.03;;;0.77;;
8038;SDS011;4062;49.844;8.120;2023-08-08T11:14:59;1.00;;;0.70;;
8038;SDS011;4062;49.844;8.120;2023-08-08T11:17:00;0.93;;;0.93;;
8038;SDS011;4062;49.844;8.120;2023-08-08T11:19:02;1.10;;;0.60;;
8038;SDS011;4062;49.844;8.120;2023-08-08T11:21:09;0.70;;;0.50;;
8038;SDS011;4062;49.844;8.120;2023-08-08T11:23:11;0.93;;;0.93;;
8038;SDS011;4062;49.844;8.120;2023-08-08T11:25:14;1.17;;;0.47;;
8038;SDS011;4062;49.844;8.120;2023-08-08T11:27:15;0.50;;;0.40;;
8038;SDS011;4062;49.844;8.120;2023-08-08T11:29:16;0.50;;;0.50;;
8038;SDS011;4062;49.844;8.120;2023-08-08T11:31:21;0.80;;;0.50;;
8038;SDS011;4062;49.844;8.120;2023-08-08T11:33:22;0.70;;;0.60;;
8038;SDS011;4062;49.844;8.120;2023-08-08T11:35:25;0.60;;;0.60;;
8038;SDS011;4062;49.844;8.120;2023-08-08T11:37:27;5.90;;;2.00;;
8038;SDS011;4062;49.844;8.120;2023-08-08T11:39:29;1.60;;;1.50;;
8038;SDS011;4062;49.844;8.120;2023-08-08T11:41:30;2.70;;;1.20;;
8038;SDS011;4062;49.844;8.120;2023-08-08T11:43:32;4.60;;;2.30;;
8038;SDS011;4062;49.844;8.120;2023-08-08T11:45:34;3.23;;;1.67;;
8038;SDS011;4062;49.844;8.120;2023-08-08T11:47:35;1.87;;;1.47;;
8038;SDS011;4062;49.844;8.120;2023-08-08T11:49:43;2.07;;;1.60;;
8038;SDS011;4062;49.844;8.120;2023-08-08T11:51:46;1.10;;;1.00;;
8038;SDS011;4062;49.844;8.120;2023-08-08T11:53:48;1.70;;;1.37;;
8038;SDS011;4062;49.844;8.120;2023-08-08T11:55:51;6.23;;;1.40;;
8038;SDS011;4062;49.844;8.120;2023-08-08T11:57:54;1.97;;;1.30;;
8038;SDS011;4062;49.844;8.120;2023-08-08T12:00:03;1.37;;;1.27;;
8038;SDS011;4062;49.844;8.120;2023-08-08T12:02:18;1.57;;;1.47;;
8038;SDS011;4062;49.844;8.120;2023-08-08T12:04:20;3.47;;;2.07;;
8038;SDS011;4062;49.844;8.120;2023-08-08T12:06:21;1.93;;;1.40;;
8038;SDS011;4062;49.844;8.120;2023-08-08T12:08:22;2.10;;;1.87;;
8038;SDS011;4062;49.844;8.120;2023-08-08T12:10:24;2.20;;;1.13;;
8038;SDS011;4062;49.844;8.120;2023-08-08T12:12:26;2.30;;;1.13;;
8038;SDS011;4062;49.844;8.120;2023-08-08T12:14:28;3.50;;;2.00;;
8038;SDS011;4062;49.844;8.120;2023-08-08T12:16:30;3.17;;;2.10;;
8038;SDS011;4062;49.844;8.120;2023-08-08T12:18:33;3.07;;;1.53;;
8038;SDS011;4062;49.844;8.120;2023-08-08T12:20:40;3.07;;;1.90;;
8038;SDS011;4062;49.844;8.120;2023-08-08T12:22:42;2.10;;;1.50;;
8038;SDS011;4062;49.844;8.120;2023-08-08T12:24:43;1.30;;;1.00;;
8038;SDS011;4062;49.844;8.120;2023-08-08T12:26:44;0.70;;;0.63;;
8038;SDS011;4062;49.844;8.120;2023-08-08T12:28:46;1.67;;;1.57;;
8038;SDS011;4062;49.844;8.120;2023-08-08T12:30:48;0.67;;;0.50;;
8038;SDS011;4062;49.844;8.120;2023-08-08T12:32:49;2.60;;;1.30;;
8038;SDS011;4062;49.844;8.120;2023-08-08T12:34:50;1.13;;;1.10;;
8038;SDS011;4062;49.844;8.120;2023-08-08T12:36:52;0.80;;;0.80;;
8038;SDS011;4062;49.844;8.120;2023-08-08T12:38:53;1.20;;;0.63;;
8038;SDS011;4062;49.844;8.120;2023-08-08T12:40:57;1.03;;;0.73;;
8038;SDS011;4062;49.844;8.120;2023-08-08T12:43:02;1.47;;;0.90;;
8038;SDS011;4062;49.844;8.120;2023-08-08T12:45:05;0.80;;;0.73;;
8038;SDS011;4062;49.844;8.120;2023-08-08T12:47:07;1.67;;;0.80;;
8038;SDS011;4062;49.844;8.120;2023-08-08T12:49:09;1.37;;;1.20;;